createdAt,value
2018-05-25T00:00:13.573Z,0.00
2018-05-25T00:01:13.573Z,0.00
2018-05-25T00:02:13.576Z,0.00
2018-05-25T00:03:13.581Z,0.00
2018-05-25T00:04:13.586Z,0.00
2018-05-25T00:05:13.590Z,0.00
2018-05-25T00:06:13.595Z,0.00
2018-05-25T00:07:13.599Z,0.00
2018-05-25T00:08:13.603Z,0.00
2018-05-25T00:09:13.607Z,0.00
2018-05-25T00:10:13.611Z,0.00
2018-05-25T00:11:13.616Z,0.00
2018-05-25T00:12:13.619Z,0.00
2018-05-25T00:13:13.624Z,0.00
2018-05-25T00:14:13.627Z,0.00
2018-05-25T00:15:13.631Z,0.00
2018-05-25T00:16:13.638Z,0.00
2018-05-25T00:17:13.640Z,0.00
2018-05-25T00:18:13.643Z,0.00
2018-05-25T00:19:13.647Z,0.00
2018-05-25T00:20:13.652Z,0.00
2018-05-25T00:21:13.658Z,0.00
2018-05-25T00:22:13.660Z,0.00
2018-05-25T00:23:13.664Z,0.00
2018-05-25T00:24:13.668Z,0.00
2018-05-25T00:25:13.672Z,0.00
2018-05-25T00:26:13.675Z,0.00
2018-05-25T00:27:13.679Z,0.00
2018-05-25T00:28:13.684Z,0.00
2018-05-25T00:29:13.687Z,0.00
2018-05-25T00:30:13.691Z,0.00
2018-05-25T00:31:13.699Z,0.00
2018-05-25T00:32:13.700Z,0.00
2018-05-25T00:33:13.703Z,0.00
2018-05-25T00:34:13.707Z,0.00
2018-05-25T00:35:13.712Z,0.00
2018-05-25T00:36:13.716Z,0.00
2018-05-25T00:37:13.720Z,0.00
2018-05-25T00:38:13.723Z,0.00
2018-05-25T00:39:13.727Z,0.00
2018-05-25T00:40:13.731Z,0.00
2018-05-25T00:41:13.737Z,0.00
2018-05-25T00:42:13.739Z,0.00
2018-05-25T00:43:13.743Z,0.00
2018-05-25T00:44:13.748Z,0.00
2018-05-25T00:45:13.751Z,0.00
2018-05-25T00:46:13.754Z,0.00
2018-05-25T00:47:13.759Z,0.00
2018-05-25T00:48:13.763Z,0.00
2018-05-25T00:49:13.766Z,0.00
2018-05-25T00:50:13.770Z,0.00
2018-05-25T00:51:13.774Z,0.00
2018-05-25T00:52:13.780Z,0.00
2018-05-25T00:53:13.783Z,0.00
2018-05-25T00:54:13.786Z,0.00
2018-05-25T00:55:13.792Z,0.00
2018-05-25T00:56:13.795Z,0.00
2018-05-25T00:57:13.799Z,0.00
2018-05-25T00:58:13.802Z,0.00
2018-05-25T00:59:13.806Z,0.00
2018-05-25T01:00:13.811Z,0.00
2018-05-25T01:01:13.815Z,0.00
2018-05-25T01:02:13.816Z,0.00
2018-05-25T01:03:13.822Z,0.00
2018-05-25T01:04:13.826Z,0.00
2018-05-25T01:05:13.830Z,0.00
2018-05-25T01:06:13.833Z,0.00
2018-05-25T01:07:13.837Z,0.00
2018-05-25T01:08:13.844Z,0.00
2018-05-25T01:09:13.845Z,0.00
2018-05-25T01:10:13.848Z,0.00
2018-05-25T01:11:13.859Z,0.00
2018-05-25T01:12:13.857Z,0.00
2018-05-25T01:13:13.861Z,0.00
2018-05-25T01:14:13.864Z,0.00
2018-05-25T01:15:13.869Z,0.00
2018-05-25T01:16:13.873Z,0.00
2018-05-25T01:17:13.877Z,0.00
2018-05-25T01:18:13.880Z,0.00
2018-05-25T01:19:13.885Z,0.00
2018-05-25T01:20:13.888Z,0.00
2018-05-25T01:21:13.892Z,0.00
2018-05-25T01:22:13.896Z,0.00
2018-05-25T01:23:13.899Z,0.00
2018-05-25T01:24:13.904Z,0.00
2018-05-25T01:25:13.912Z,0.00
2018-05-25T01:26:13.913Z,0.00
2018-05-25T01:27:13.916Z,0.00
2018-05-25T01:28:13.920Z,0.00
2018-05-25T01:29:13.926Z,0.00
2018-05-25T01:30:13.928Z,0.00
2018-05-25T01:31:13.931Z,0.00
2018-05-25T01:32:13.938Z,0.00
2018-05-25T01:33:13.940Z,0.00
2018-05-25T01:34:13.943Z,0.00
2018-05-25T01:35:13.947Z,0.00
2018-05-25T01:36:13.950Z,0.00
2018-05-25T01:37:13.956Z,0.00
2018-05-25T01:38:13.959Z,0.00
2018-05-25T01:39:13.962Z,0.00
2018-05-25T01:40:13.970Z,0.00
2018-05-25T01:41:13.971Z,0.00
2018-05-25T01:42:13.974Z,0.00
2018-05-25T01:43:13.979Z,0.00
2018-05-25T01:44:13.984Z,0.00
2018-05-25T01:45:13.990Z,0.00
2018-05-25T01:46:13.991Z,0.00
2018-05-25T01:47:13.996Z,0.00
2018-05-25T01:48:13.999Z,0.00
2018-05-25T01:49:14.002Z,0.00
2018-05-25T01:50:14.006Z,0.00
2018-05-25T01:51:14.012Z,0.00
2018-05-25T01:52:14.017Z,0.00
2018-05-25T01:53:14.019Z,0.00
2018-05-25T01:54:14.022Z,0.00
2018-05-25T01:55:14.026Z,0.00
2018-05-25T01:56:14.030Z,0.00
2018-05-25T01:57:14.034Z,0.00
2018-05-25T01:58:14.036Z,0.00
2018-05-25T01:59:14.042Z,0.00
2018-05-25T02:00:14.044Z,0.00
2018-05-25T02:01:14.052Z,0.00
2018-05-25T02:02:14.053Z,0.00
2018-05-25T02:03:14.056Z,0.00
2018-05-25T02:04:14.060Z,0.00
2018-05-25T02:05:14.064Z,0.00
2018-05-25T02:06:14.067Z,0.00
2018-05-25T02:07:14.072Z,0.00
2018-05-25T02:08:14.075Z,0.00
2018-05-25T02:09:14.081Z,0.00
2018-05-25T02:10:14.086Z,0.00
2018-05-25T02:11:14.135Z,0.00
2018-05-25T02:12:14.092Z,0.00
2018-05-25T02:13:14.097Z,0.00
2018-05-25T02:14:14.098Z,0.00
2018-05-25T02:15:14.101Z,0.00
2018-05-25T02:16:14.104Z,0.00
2018-05-25T02:17:14.110Z,0.00
2018-05-25T02:18:14.112Z,0.00
2018-05-25T02:19:14.116Z,0.00
2018-05-25T02:20:14.120Z,0.00
2018-05-25T02:21:14.123Z,0.00
2018-05-25T02:22:14.131Z,0.00
2018-05-25T02:23:14.131Z,0.00
2018-05-25T02:24:14.135Z,0.00
2018-05-25T02:25:14.141Z,0.00
2018-05-25T02:26:14.141Z,0.00
2018-05-25T02:27:14.146Z,0.00
2018-05-25T02:28:14.151Z,0.00
2018-05-25T02:29:14.154Z,0.00
2018-05-25T02:30:14.159Z,0.00
2018-05-25T02:31:14.163Z,0.00
2018-05-25T02:32:14.167Z,0.00
2018-05-25T02:33:14.169Z,0.00
2018-05-25T02:34:14.172Z,0.00
2018-05-25T02:35:14.176Z,0.00
2018-05-25T02:36:14.180Z,0.00
2018-05-25T02:37:14.184Z,0.00
2018-05-25T02:38:14.189Z,0.00
2018-05-25T02:39:14.191Z,0.00
2018-05-25T02:40:14.196Z,0.00
2018-05-25T02:41:14.200Z,0.00
2018-05-25T02:42:14.202Z,0.00
2018-05-25T02:43:14.207Z,0.00
2018-05-25T02:44:14.210Z,0.00
2018-05-25T02:45:14.214Z,0.00
2018-05-25T02:46:14.217Z,0.00
2018-05-25T02:47:14.220Z,0.00
2018-05-25T02:48:14.224Z,0.00
2018-05-25T02:49:14.229Z,0.00
2018-05-25T02:50:14.230Z,0.00
2018-05-25T02:51:14.235Z,0.00
2018-05-25T02:52:14.240Z,0.00
2018-05-25T02:53:14.242Z,0.00
2018-05-25T02:54:14.246Z,0.00
2018-05-25T02:55:14.249Z,0.00
2018-05-25T02:56:14.262Z,0.00
2018-05-25T02:57:14.273Z,0.00
2018-05-25T02:58:14.260Z,0.00
2018-05-25T02:59:14.277Z,0.00
2018-05-25T03:00:14.267Z,0.00
2018-05-25T03:01:14.273Z,0.00
2018-05-25T03:02:14.273Z,0.00
2018-05-25T03:03:14.281Z,0.00
2018-05-25T03:04:14.282Z,0.00
2018-05-25T03:05:14.289Z,0.00
2018-05-25T03:06:14.289Z,0.00
2018-05-25T03:07:14.292Z,0.00
2018-05-25T03:08:14.298Z,0.00
2018-05-25T03:09:14.312Z,0.00
2018-05-25T03:10:14.302Z,0.00
2018-05-25T03:11:14.313Z,0.00
2018-05-25T03:12:14.318Z,0.00
2018-05-25T03:13:14.324Z,0.00
2018-05-25T03:14:14.315Z,0.00
2018-05-25T03:15:14.319Z,0.00
2018-05-25T03:16:14.323Z,0.00
2018-05-25T03:17:14.325Z,0.00
2018-05-25T03:18:14.329Z,0.00
2018-05-25T03:19:14.335Z,0.00
2018-05-25T03:20:14.337Z,0.00
2018-05-25T03:21:14.339Z,0.00
2018-05-25T03:22:14.342Z,5.63
2018-05-25T03:23:14.348Z,5.63
2018-05-25T03:24:14.349Z,5.63
2018-05-25T03:25:14.353Z,5.63
2018-05-25T03:26:14.398Z,5.63
2018-05-25T03:27:14.361Z,5.63
2018-05-25T03:28:14.364Z,5.63
2018-05-25T03:29:14.368Z,5.63
2018-05-25T03:30:14.370Z,5.63
2018-05-25T03:31:14.373Z,5.63
2018-05-25T03:32:14.379Z,5.63
2018-05-25T03:33:14.384Z,5.63
2018-05-25T03:34:14.382Z,11.25
2018-05-25T03:35:14.387Z,11.25
2018-05-25T03:36:14.395Z,11.25
2018-05-25T03:37:14.399Z,11.25
2018-05-25T03:38:14.397Z,11.25
2018-05-25T03:39:14.401Z,11.25
2018-05-25T03:40:14.407Z,11.25
2018-05-25T03:41:14.410Z,11.25
2018-05-25T03:42:14.411Z,11.25
2018-05-25T03:43:14.415Z,16.88
2018-05-25T03:44:14.418Z,16.88
2018-05-25T03:45:14.422Z,16.88
2018-05-25T03:46:14.425Z,16.88
2018-05-25T03:47:14.427Z,16.88
2018-05-25T03:48:14.433Z,22.50
2018-05-25T03:49:14.435Z,22.50
2018-05-25T03:50:14.440Z,22.50
2018-05-25T03:51:14.441Z,22.50
2018-05-25T03:52:14.445Z,22.50
2018-05-25T03:53:14.449Z,22.50
2018-05-25T03:54:14.451Z,22.50
2018-05-25T03:55:14.455Z,22.50
2018-05-25T03:56:14.459Z,22.50
2018-05-25T03:57:14.463Z,22.50
2018-05-25T03:58:14.466Z,22.50
2018-05-25T03:59:14.469Z,22.50
2018-05-25T04:00:14.474Z,22.50
2018-05-25T04:01:14.477Z,28.13
2018-05-25T04:02:14.480Z,28.13
2018-05-25T04:03:14.483Z,28.13
2018-05-25T04:04:14.487Z,28.13
2018-05-25T04:05:14.495Z,33.75
2018-05-25T04:06:14.493Z,33.75
2018-05-25T04:07:14.497Z,33.75
2018-05-25T04:08:14.501Z,39.38
2018-05-25T04:09:14.504Z,39.38
2018-05-25T04:10:14.507Z,39.38
2018-05-25T04:11:14.511Z,39.38
2018-05-25T04:12:14.515Z,39.38
2018-05-25T04:13:14.520Z,39.38
2018-05-25T04:14:14.533Z,45.00
2018-05-25T04:15:14.526Z,45.00
2018-05-25T04:16:14.528Z,39.38
2018-05-25T04:17:14.533Z,39.38
2018-05-25T04:18:14.536Z,39.38
2018-05-25T04:19:14.538Z,39.38
2018-05-25T04:20:14.543Z,39.38
2018-05-25T04:21:14.547Z,33.75
2018-05-25T04:22:14.550Z,33.75
2018-05-25T04:23:14.554Z,33.75
2018-05-25T04:24:14.558Z,33.75
2018-05-25T04:25:14.562Z,33.75
2018-05-25T04:26:14.565Z,33.75
2018-05-25T04:27:14.569Z,33.75
2018-05-25T04:28:14.572Z,33.75
2018-05-25T04:29:14.577Z,33.75
2018-05-25T04:30:14.579Z,33.75
2018-05-25T04:31:14.593Z,28.13
2018-05-25T04:32:14.587Z,28.13
2018-05-25T04:33:14.591Z,28.13
2018-05-25T04:34:14.594Z,28.13
2018-05-25T04:35:14.598Z,28.13
2018-05-25T04:36:14.601Z,28.13
2018-05-25T04:37:14.605Z,22.50
2018-05-25T04:38:14.609Z,22.50
2018-05-25T04:39:14.613Z,22.50
2018-05-25T04:40:14.616Z,22.50
2018-05-25T04:41:14.620Z,22.50
2018-05-25T04:42:14.622Z,28.13
2018-05-25T04:43:14.655Z,28.13
2018-05-25T04:44:14.631Z,28.13
2018-05-25T04:45:14.634Z,28.13
2018-05-25T04:46:14.638Z,28.13
2018-05-25T04:47:14.641Z,28.13
2018-05-25T04:48:14.645Z,28.13
2018-05-25T04:49:14.649Z,28.13
2018-05-25T04:50:14.654Z,28.13
2018-05-25T04:51:14.657Z,33.75
2018-05-25T04:52:14.660Z,33.75
2018-05-25T04:53:14.665Z,33.75
2018-05-25T04:54:14.669Z,33.75
2018-05-25T04:55:14.671Z,33.75
2018-05-25T04:56:14.676Z,33.75
2018-05-25T04:57:14.679Z,39.38
2018-05-25T04:58:14.682Z,39.38
2018-05-25T04:59:14.686Z,39.38
2018-05-25T05:00:14.689Z,45.00
2018-05-25T05:01:14.694Z,45.00
2018-05-25T05:02:14.696Z,50.63
2018-05-25T05:03:14.700Z,50.63
2018-05-25T05:04:14.704Z,50.63
2018-05-25T05:05:14.708Z,56.25
2018-05-25T05:06:14.711Z,56.25
2018-05-25T05:07:14.715Z,56.25
2018-05-25T05:08:14.719Z,56.25
2018-05-25T05:09:14.723Z,56.25
2018-05-25T05:10:14.726Z,56.25
2018-05-25T05:11:14.730Z,61.88
2018-05-25T05:12:14.737Z,61.88
2018-05-25T05:13:14.738Z,61.88
2018-05-25T05:14:14.742Z,67.50
2018-05-25T05:15:14.745Z,67.50
2018-05-25T05:16:14.749Z,73.13
2018-05-25T05:17:14.752Z,73.13
2018-05-25T05:18:14.756Z,73.13
2018-05-25T05:19:14.760Z,73.13
2018-05-25T05:20:14.763Z,78.75
2018-05-25T05:21:14.768Z,78.75
2018-05-25T05:22:14.773Z,73.13
2018-05-25T05:23:14.774Z,73.13
2018-05-25T05:24:14.779Z,73.13
2018-05-25T05:25:14.782Z,73.13
2018-05-25T05:26:14.785Z,73.13
2018-05-25T05:27:14.792Z,73.13
2018-05-25T05:28:14.793Z,78.75
2018-05-25T05:29:14.797Z,78.75
2018-05-25T05:30:14.805Z,84.38
2018-05-25T05:31:14.805Z,90.00
2018-05-25T05:32:14.808Z,95.63
2018-05-25T05:33:14.813Z,95.63
2018-05-25T05:34:14.815Z,101.25
2018-05-25T05:35:14.824Z,106.88
2018-05-25T05:36:14.826Z,106.88
2018-05-25T05:37:14.829Z,106.88
2018-05-25T05:38:14.832Z,106.88
2018-05-25T05:39:14.835Z,106.88
2018-05-25T05:40:14.840Z,106.88
2018-05-25T05:41:14.845Z,101.25
2018-05-25T05:42:14.847Z,101.25
2018-05-25T05:43:14.852Z,95.63
2018-05-25T05:44:14.855Z,95.63
2018-05-25T05:45:14.861Z,95.63
2018-05-25T05:46:14.864Z,95.63
2018-05-25T05:47:14.869Z,95.63
2018-05-25T05:48:14.871Z,95.63
2018-05-25T05:49:14.923Z,95.63
2018-05-25T05:50:14.879Z,95.63
2018-05-25T05:51:14.884Z,95.63
2018-05-25T05:52:14.891Z,101.25
2018-05-25T05:53:14.891Z,101.25
2018-05-25T05:54:14.895Z,112.50
2018-05-25T05:55:14.898Z,118.13
2018-05-25T05:56:14.906Z,123.75
2018-05-25T05:57:14.908Z,135.00
2018-05-25T05:58:14.912Z,140.63
2018-05-25T05:59:14.917Z,146.25
2018-05-25T06:00:14.925Z,151.88
2018-05-25T06:01:14.930Z,157.50
2018-05-25T06:02:14.928Z,163.13
2018-05-25T06:03:14.932Z,163.13
2018-05-25T06:04:14.941Z,168.75
2018-05-25T06:05:14.942Z,168.75
2018-05-25T06:06:14.944Z,168.75
2018-05-25T06:07:14.948Z,174.38
2018-05-25T06:08:14.953Z,185.63
2018-05-25T06:09:14.957Z,196.88
2018-05-25T06:10:14.961Z,202.50
2018-05-25T06:11:14.965Z,202.50
2018-05-25T06:12:14.970Z,202.50
2018-05-25T06:13:14.977Z,202.50
2018-05-25T06:14:14.977Z,208.13
2018-05-25T06:15:14.982Z,213.75
2018-05-25T06:16:14.987Z,225.00
2018-05-25T06:17:14.992Z,230.63
2018-05-25T06:18:14.995Z,241.88
2018-05-25T06:19:15.003Z,241.88
2018-05-25T06:20:15.005Z,247.50
2018-05-25T06:21:15.009Z,253.13
2018-05-25T06:22:15.021Z,258.75
2018-05-25T06:23:15.018Z,264.38
2018-05-25T06:24:15.023Z,275.63
2018-05-25T06:25:15.029Z,298.13
2018-05-25T06:26:15.031Z,320.63
2018-05-25T06:27:15.037Z,354.38
2018-05-25T06:28:15.041Z,388.13
2018-05-25T06:29:15.046Z,438.75
2018-05-25T06:30:15.051Z,472.50
2018-05-25T06:31:15.058Z,534.38
2018-05-25T06:32:15.060Z,590.63
2018-05-25T06:33:15.066Z,641.25
2018-05-25T06:34:15.070Z,663.75
2018-05-25T06:35:15.074Z,675.00
2018-05-25T06:36:15.079Z,675.00
2018-05-25T06:37:15.087Z,663.75
2018-05-25T06:38:15.093Z,652.50
2018-05-25T06:39:15.095Z,641.25
2018-05-25T06:40:15.102Z,641.25
2018-05-25T06:41:15.107Z,646.88
2018-05-25T06:42:15.110Z,646.88
2018-05-25T06:43:15.119Z,663.75
2018-05-25T06:44:15.123Z,669.38
2018-05-25T06:45:15.129Z,675.00
2018-05-25T06:46:15.135Z,691.88
2018-05-25T06:47:15.141Z,731.25
2018-05-25T06:48:15.147Z,787.50
2018-05-25T06:49:15.155Z,821.25
2018-05-25T06:50:15.158Z,843.75
2018-05-25T06:51:15.165Z,832.50
2018-05-25T06:52:15.171Z,821.25
2018-05-25T06:53:15.178Z,781.88
2018-05-25T06:54:15.186Z,748.13
2018-05-25T06:55:15.197Z,714.38
2018-05-25T06:56:15.197Z,686.25
2018-05-25T06:57:15.204Z,675.00
2018-05-25T06:58:15.209Z,686.25
2018-05-25T06:59:15.217Z,703.13
2018-05-25T07:00:15.224Z,725.63
2018-05-25T07:01:15.232Z,765.00
2018-05-25T07:02:15.237Z,832.50
2018-05-25T07:03:15.244Z,877.50
2018-05-25T07:04:15.255Z,905.63
2018-05-25T07:05:15.259Z,911.25
2018-05-25T07:06:15.265Z,928.13
2018-05-25T07:07:15.272Z,922.50
2018-05-25T07:08:15.279Z,922.50
2018-05-25T07:09:15.287Z,905.63
2018-05-25T07:10:15.297Z,866.25
2018-05-25T07:11:15.301Z,877.50
2018-05-25T07:12:15.310Z,838.13
2018-05-25T07:13:15.318Z,810.00
2018-05-25T07:14:15.323Z,748.13
2018-05-25T07:15:15.331Z,680.63
2018-05-25T07:16:15.340Z,635.63
2018-05-25T07:17:15.348Z,613.13
2018-05-25T07:18:15.354Z,585.00
2018-05-25T07:19:15.361Z,551.25
2018-05-25T07:20:15.369Z,545.63
2018-05-25T07:21:15.378Z,534.38
2018-05-25T07:22:15.385Z,545.63
2018-05-25T07:23:15.392Z,556.88
2018-05-25T07:24:15.403Z,562.50
2018-05-25T07:25:15.408Z,568.13
2018-05-25T07:26:15.417Z,596.25
2018-05-25T07:27:15.422Z,601.88
2018-05-25T07:28:15.429Z,585.00
2018-05-25T07:29:15.437Z,590.63
2018-05-25T07:30:15.450Z,618.75
2018-05-25T07:31:15.453Z,703.13
2018-05-25T07:32:15.458Z,1108.13
2018-05-25T07:33:15.474Z,1788.75
2018-05-25T07:34:15.474Z,2508.75
2018-05-25T07:35:15.491Z,2925.00
2018-05-25T07:36:15.492Z,3228.75
2018-05-25T07:37:15.499Z,2660.63
2018-05-25T07:38:15.506Z,3183.75
2018-05-25T07:39:15.521Z,3121.88
2018-05-25T07:40:15.524Z,3330.00
2018-05-25T07:41:15.533Z,3465.00
2018-05-25T07:42:15.545Z,3510.00
2018-05-25T07:43:15.553Z,3330.00
2018-05-25T07:44:15.564Z,3414.38
2018-05-25T07:45:15.574Z,2913.75
2018-05-25T07:46:15.585Z,2722.50
2018-05-25T07:47:15.596Z,3026.25
2018-05-25T07:48:15.607Z,2975.63
2018-05-25T07:49:15.620Z,3116.25
2018-05-25T07:50:15.631Z,3346.88
2018-05-25T07:51:15.644Z,3240.00
2018-05-25T07:52:15.655Z,3251.25
2018-05-25T07:53:15.672Z,2812.50
2018-05-25T07:54:15.685Z,3211.88
2018-05-25T07:55:15.696Z,3380.63
2018-05-25T07:56:15.706Z,3408.75
2018-05-25T07:57:15.719Z,3425.63
2018-05-25T07:58:15.731Z,3425.63
2018-05-25T07:59:15.745Z,3391.88
2018-05-25T08:00:15.790Z,3358.13
2018-05-25T08:01:15.772Z,3420.00
2018-05-25T08:02:15.784Z,3369.38
2018-05-25T08:03:15.799Z,3386.25
2018-05-25T08:04:15.812Z,3420.00
2018-05-25T08:05:15.826Z,3431.25
2018-05-25T08:06:15.840Z,3391.88
2018-05-25T08:07:15.854Z,3330.00
2018-05-25T08:08:15.868Z,3335.63
2018-05-25T08:09:15.883Z,3301.88
2018-05-25T08:10:15.896Z,3256.88
2018-05-25T08:11:15.911Z,3228.75
2018-05-25T08:12:15.926Z,3268.13
2018-05-25T08:13:15.941Z,3279.38
2018-05-25T08:14:15.955Z,3234.38
2018-05-25T08:15:15.969Z,3268.13
2018-05-25T08:16:15.985Z,3256.88
2018-05-25T08:17:16.000Z,3183.75
2018-05-25T08:18:16.019Z,3110.63
2018-05-25T08:19:16.030Z,2953.13
2018-05-25T08:20:16.045Z,3189.38
2018-05-25T08:21:16.061Z,3161.25
2018-05-25T08:22:16.074Z,3110.63
2018-05-25T08:23:16.091Z,3268.13
2018-05-25T08:24:16.106Z,1057.50
2018-05-25T08:25:16.121Z,1203.75
2018-05-25T08:26:16.136Z,3161.25
2018-05-25T08:27:16.152Z,3076.88
2018-05-25T08:28:16.167Z,2902.50
2018-05-25T08:29:16.183Z,3121.88
2018-05-25T08:30:16.230Z,3290.63
2018-05-25T08:31:16.215Z,1035.00
2018-05-25T08:32:16.227Z,1535.63
2018-05-25T08:33:16.244Z,1597.50
2018-05-25T08:34:16.258Z,2098.13
2018-05-25T08:35:16.273Z,911.25
2018-05-25T08:36:16.288Z,849.38
2018-05-25T08:37:16.304Z,1231.88
2018-05-25T08:38:16.318Z,585.00
2018-05-25T08:39:16.336Z,466.88
2018-05-25T08:40:16.348Z,472.50
2018-05-25T08:41:16.363Z,562.50
2018-05-25T08:42:16.377Z,956.25
2018-05-25T08:43:16.429Z,3183.75
2018-05-25T08:44:16.403Z,2660.63
2018-05-25T08:45:16.420Z,3138.75
2018-05-25T08:46:16.433Z,3054.38
2018-05-25T08:47:16.446Z,2756.25
2018-05-25T08:48:16.459Z,2896.88
2018-05-25T08:49:16.474Z,3318.75
2018-05-25T08:50:16.487Z,3324.38
2018-05-25T08:51:16.501Z,3268.13
2018-05-25T08:52:16.515Z,2733.75
2018-05-25T08:53:16.536Z,1125.00
2018-05-25T08:54:16.544Z,1456.88
2018-05-25T08:55:16.559Z,3318.75
2018-05-25T08:56:16.572Z,1001.25
2018-05-25T08:57:16.587Z,1029.38
2018-05-25T08:58:16.599Z,3127.50
2018-05-25T08:59:16.615Z,3200.63
2018-05-25T09:00:16.629Z,3273.75
2018-05-25T09:01:16.695Z,1383.75
2018-05-25T09:02:16.658Z,1119.38
2018-05-25T09:03:16.676Z,1569.38
2018-05-25T09:04:16.686Z,787.50
2018-05-25T09:05:16.701Z,928.13
2018-05-25T09:06:16.715Z,714.38
2018-05-25T09:07:16.733Z,871.88
2018-05-25T09:08:16.747Z,1276.88
2018-05-25T09:09:16.757Z,1530.00
2018-05-25T09:10:16.773Z,1260.00
2018-05-25T09:11:16.783Z,1029.38
2018-05-25T09:12:16.800Z,821.25
2018-05-25T09:13:16.812Z,765.00
2018-05-25T09:14:16.825Z,736.88
2018-05-25T09:15:16.838Z,714.38
2018-05-25T09:16:16.851Z,697.50
2018-05-25T09:17:16.864Z,680.63
2018-05-25T09:18:16.876Z,652.50
2018-05-25T09:19:16.890Z,669.38
2018-05-25T09:20:16.907Z,703.13
2018-05-25T09:21:16.917Z,793.13
2018-05-25T09:22:16.927Z,843.75
2018-05-25T09:23:16.941Z,798.75
2018-05-25T09:24:16.954Z,810.00
2018-05-25T09:25:16.967Z,843.75
2018-05-25T09:26:16.978Z,990.00
2018-05-25T09:27:16.991Z,1620.00
2018-05-25T09:28:17.010Z,1350.00
2018-05-25T09:29:17.015Z,2649.38
2018-05-25T09:30:17.026Z,1080.00
2018-05-25T09:31:17.039Z,1096.88
2018-05-25T09:32:17.052Z,2812.50
2018-05-25T09:33:17.066Z,2379.38
2018-05-25T09:34:17.075Z,1980.00
2018-05-25T09:35:17.088Z,2559.38
2018-05-25T09:36:17.103Z,2278.13
2018-05-25T09:37:17.113Z,2345.63
2018-05-25T09:38:17.124Z,2379.38
2018-05-25T09:39:17.138Z,2053.13
2018-05-25T09:40:17.148Z,2165.63
2018-05-25T09:41:17.162Z,2857.50
2018-05-25T09:42:17.175Z,2036.25
2018-05-25T09:43:17.192Z,2446.88
2018-05-25T09:44:17.200Z,1231.88
2018-05-25T09:45:17.213Z,1738.13
2018-05-25T09:46:17.225Z,1591.88
2018-05-25T09:47:17.238Z,1642.50
2018-05-25T09:48:17.252Z,1816.88
2018-05-25T09:49:17.271Z,1918.13
2018-05-25T09:50:17.278Z,1794.38
2018-05-25T09:51:17.291Z,2154.38
2018-05-25T09:52:17.304Z,2688.75
2018-05-25T09:53:17.320Z,1957.50
2018-05-25T09:54:17.331Z,2306.25
2018-05-25T09:55:17.345Z,2424.38
2018-05-25T09:56:17.358Z,2829.38
2018-05-25T09:57:17.372Z,2435.63
2018-05-25T09:58:17.384Z,2868.75
2018-05-25T09:59:17.398Z,2846.25
2018-05-25T10:00:17.414Z,2784.38
2018-05-25T10:01:17.427Z,2806.88
2018-05-25T10:02:17.442Z,2171.25
2018-05-25T10:03:17.454Z,1693.13
2018-05-25T10:04:17.472Z,1231.88
2018-05-25T10:05:17.486Z,1051.88
2018-05-25T10:06:17.497Z,995.63
2018-05-25T10:07:17.511Z,1012.50
2018-05-25T10:08:17.528Z,1023.75
2018-05-25T10:09:17.541Z,1023.75
2018-05-25T10:10:17.553Z,1113.75
2018-05-25T10:11:17.568Z,1040.63
2018-05-25T10:12:17.582Z,1006.88
2018-05-25T10:13:17.597Z,1085.63
2018-05-25T10:14:17.610Z,1091.25
2018-05-25T10:15:17.623Z,1096.88
2018-05-25T10:16:17.636Z,1248.75
2018-05-25T10:17:17.651Z,1417.50
2018-05-25T10:18:17.663Z,1338.75
2018-05-25T10:19:17.678Z,1282.50
2018-05-25T10:20:17.691Z,1316.25
2018-05-25T10:21:17.704Z,1147.50
2018-05-25T10:22:17.717Z,1231.88
2018-05-25T10:23:17.735Z,1198.13
2018-05-25T10:24:17.745Z,1147.50
2018-05-25T10:25:17.760Z,1203.75
2018-05-25T10:26:17.772Z,1186.88
2018-05-25T10:27:17.785Z,1170.00
2018-05-25T10:28:17.799Z,1209.38
2018-05-25T10:29:17.814Z,1276.88
2018-05-25T10:30:17.829Z,1327.50
2018-05-25T10:31:17.841Z,1040.63
2018-05-25T10:32:17.855Z,832.50
2018-05-25T10:33:17.869Z,765.00
2018-05-25T10:34:17.882Z,748.13
2018-05-25T10:35:17.897Z,686.25
2018-05-25T10:36:17.909Z,691.88
2018-05-25T10:37:17.925Z,731.25
2018-05-25T10:38:17.938Z,793.13
2018-05-25T10:39:17.952Z,815.63
2018-05-25T10:40:17.965Z,1215.00
2018-05-25T10:41:17.983Z,990.00
2018-05-25T10:42:17.992Z,1040.63
2018-05-25T10:43:18.006Z,826.88
2018-05-25T10:44:18.020Z,793.13
2018-05-25T10:45:18.034Z,736.88
2018-05-25T10:46:18.047Z,866.25
2018-05-25T10:47:18.058Z,821.25
2018-05-25T10:48:18.071Z,821.25
2018-05-25T10:49:18.085Z,1271.25
2018-05-25T10:50:18.098Z,1254.38
2018-05-25T10:51:18.112Z,1215.00
2018-05-25T10:52:18.124Z,1119.38
2018-05-25T10:53:18.139Z,1057.50
2018-05-25T10:54:18.149Z,1012.50
2018-05-25T10:55:18.164Z,1018.13
2018-05-25T10:56:18.176Z,1006.88
2018-05-25T10:57:18.197Z,995.63
2018-05-25T10:58:18.203Z,1001.25
2018-05-25T10:59:18.216Z,973.13
2018-05-25T11:00:18.229Z,911.25
2018-05-25T11:01:18.243Z,877.50
2018-05-25T11:02:18.256Z,804.38
2018-05-25T11:03:18.270Z,826.88
2018-05-25T11:04:18.284Z,798.75
2018-05-25T11:05:18.297Z,776.25
2018-05-25T11:06:18.311Z,669.38
2018-05-25T11:07:18.324Z,573.75
2018-05-25T11:08:18.338Z,720.00
2018-05-25T11:09:18.352Z,787.50
2018-05-25T11:10:18.364Z,703.13
2018-05-25T11:11:18.379Z,658.13
2018-05-25T11:12:18.392Z,635.63
2018-05-25T11:13:18.407Z,635.63
2018-05-25T11:14:18.417Z,691.88
2018-05-25T11:15:18.432Z,821.25
2018-05-25T11:16:18.445Z,708.75
2018-05-25T11:17:18.459Z,703.13
2018-05-25T11:18:18.474Z,770.63
2018-05-25T11:19:18.484Z,686.25
2018-05-25T11:20:18.497Z,691.88
2018-05-25T11:21:18.510Z,765.00
2018-05-25T11:22:18.522Z,736.88
2018-05-25T11:23:18.536Z,725.63
2018-05-25T11:24:18.548Z,663.75
2018-05-25T11:25:18.561Z,658.13
2018-05-25T11:26:18.574Z,708.75
2018-05-25T11:27:18.586Z,545.63
2018-05-25T11:28:18.598Z,495.00
2018-05-25T11:29:18.610Z,483.75
2018-05-25T11:30:18.621Z,495.00
2018-05-25T11:31:18.634Z,495.00
2018-05-25T11:32:18.645Z,506.25
2018-05-25T11:33:18.659Z,562.50
2018-05-25T11:34:18.669Z,556.88
2018-05-25T11:35:18.681Z,568.13
2018-05-25T11:36:18.694Z,590.63
2018-05-25T11:37:18.706Z,601.88
2018-05-25T11:38:18.718Z,691.88
2018-05-25T11:39:18.729Z,669.38
2018-05-25T11:40:18.741Z,663.75
2018-05-25T11:41:18.752Z,663.75
2018-05-25T11:42:18.765Z,663.75
2018-05-25T11:43:18.775Z,585.00
2018-05-25T11:44:18.789Z,556.88
2018-05-25T11:45:18.798Z,500.63
2018-05-25T11:46:18.808Z,455.63
2018-05-25T11:47:18.823Z,399.38
2018-05-25T11:48:18.832Z,354.38
2018-05-25T11:49:18.843Z,320.63
2018-05-25T11:50:18.855Z,320.63
2018-05-25T11:51:18.865Z,303.75
2018-05-25T11:52:18.876Z,281.25
2018-05-25T11:53:18.888Z,258.75
2018-05-25T11:54:18.902Z,253.13
2018-05-25T11:55:18.910Z,253.13
2018-05-25T11:56:18.922Z,247.50
2018-05-25T11:57:18.931Z,253.13
2018-05-25T11:58:18.942Z,270.00
2018-05-25T11:59:18.953Z,292.50
2018-05-25T12:00:18.964Z,309.38
2018-05-25T12:01:18.975Z,326.25
2018-05-25T12:02:18.985Z,337.50
2018-05-25T12:03:19.000Z,348.75
2018-05-25T12:04:19.007Z,354.38
2018-05-25T12:05:19.018Z,354.38
2018-05-25T12:06:19.026Z,360.00
2018-05-25T12:07:19.042Z,360.00
2018-05-25T12:08:19.051Z,365.63
2018-05-25T12:09:19.071Z,371.25
2018-05-25T12:10:19.069Z,376.88
2018-05-25T12:11:19.079Z,371.25
2018-05-25T12:12:19.090Z,365.63
2018-05-25T12:13:19.100Z,393.75
2018-05-25T12:14:19.110Z,416.25
2018-05-25T12:15:19.122Z,433.13
2018-05-25T12:16:19.138Z,427.50
2018-05-25T12:17:19.141Z,416.25
2018-05-25T12:18:19.150Z,393.75
2018-05-25T12:19:19.161Z,371.25
2018-05-25T12:20:19.171Z,388.13
2018-05-25T12:21:19.180Z,360.00
2018-05-25T12:22:19.191Z,354.38
2018-05-25T12:23:19.201Z,348.75
2018-05-25T12:24:19.212Z,343.13
2018-05-25T12:25:19.222Z,343.13
2018-05-25T12:26:19.232Z,348.75
2018-05-25T12:27:19.241Z,354.38
2018-05-25T12:28:19.252Z,337.50
2018-05-25T12:29:19.261Z,320.63
2018-05-25T12:30:19.272Z,309.38
2018-05-25T12:31:19.282Z,309.38
2018-05-25T12:32:19.295Z,320.63
2018-05-25T12:33:19.302Z,348.75
2018-05-25T12:34:19.312Z,382.50
2018-05-25T12:35:19.321Z,410.63
2018-05-25T12:36:19.332Z,416.25
2018-05-25T12:37:19.346Z,410.63
2018-05-25T12:38:19.351Z,416.25
2018-05-25T12:39:19.364Z,416.25
2018-05-25T12:40:19.371Z,416.25